Time;durP1;ratioP1;P1;durP2;ratioP2;P2;SDS_P1;SDS_P2;PMS_P1;PMS_P2;Temp;Humidity;BMP_temperature;BMP_pressure;BME280_temperature;BME280_humidity;BME280_pressure;Samples;Min_cycle;Max_cycle;Signal;HPM_P1;HPM_P2
2023/08/08 00:00:25;;;;;;;9.52;3.55;;;;;;;13.33;100.00;101451.41;6280667;22;20095;-76
2023/08/08 00:02:51;;;;;;;7.22;3.42;;;;;;;13.34;100.00;101450.22;6281349;22;20012;-76
2023/08/08 00:05:18;;;;;;;8.55;3.50;;;;;;;13.35;100.00;101449.03;6280747;22;20016;-76
2023/08/08 00:07:44;;;;;;;4.55;3.17;;;;;;;13.38;100.00;101450.09;6280813;22;20051;-76
2023/08/08 00:10:11;;;;;;;7.05;3.00;;;;;;;13.39;100.00;101446.97;6281404;22;20012;-76
2023/08/08 00:12:38;;;;;;;5.07;3.13;;;;;;;13.39;100.00;101441.63;6280838;22;20484;-76
2023/08/08 00:15:05;;;;;;;4.40;3.40;;;;;;;13.40;100.00;101443.09;6281648;22;20023;-76
2023/08/08 00:17:31;;;;;;;6.57;2.90;;;;;;;13.43;100.00;101452.19;6280412;22;20454;-76
2023/08/08 00:19:58;;;;;;;6.25;3.20;;;;;;;13.45;100.00;101434.50;6281362;22;20100;-76
2023/08/08 00:22:25;;;;;;;3.65;2.70;;;;;;;13.46;100.00;101441.34;6279772;22;20016;-76
2023/08/08 00:24:51;;;;;;;6.47;3.10;;;;;;;13.47;100.00;101439.41;6281330;22;20040;-76
2023/08/08 00:27:18;;;;;;;7.15;3.15;;;;;;;13.50;100.00;101441.22;6280622;22;20059;-76
2023/08/08 00:29:45;;;;;;;8.23;3.05;;;;;;;13.51;100.00;101437.34;6281215;22;20070;-76
2023/08/08 00:32:12;;;;;;;6.68;3.20;;;;;;;13.51;100.00;101438.09;6253632;22;20083;-76
2023/08/08 00:34:39;;;;;;;4.85;2.80;;;;;;;13.52;100.00;101428.13;6280669;22;20039;-76
2023/08/08 00:37:05;;;;;;;7.82;2.75;;;;;;;13.54;100.00;101433.78;6280707;22;20012;-76
2023/08/08 00:39:32;;;;;;;5.32;2.60;;;;;;;13.53;100.00;101430.38;6253731;22;20012;-76
2023/08/08 00:41:59;;;;;;;6.43;2.55;;;;;;;13.51;100.00;101429.31;6253791;22;20020;-76
2023/08/08 00:44:26;;;;;;;10.65;3.10;;;;;;;13.51;100.00;101430.06;6280245;22;20028;-76
2023/08/08 00:46:53;;;;;;;4.90;2.90;;;;;;;13.50;100.00;101433.19;6253475;22;20078;-76
2023/08/08 00:49:20;;;;;;;8.82;3.17;;;;;;;13.51;100.00;101418.63;6280228;22;20070;-76
2023/08/08 00:51:47;;;;;;;4.95;2.85;;;;;;;13.50;100.00;101425.91;6252722;22;20016;-75
2023/08/08 00:54:16;;;;;;;5.95;2.65;;;;;;;13.51;100.00;101418.63;6253804;22;20024;-76
2023/08/08 00:56:43;;;;;;;6.82;2.90;;;;;;;13.52;100.00;101420.88;6281152;22;20035;-76
2023/08/08 00:59:11;;;;;;;8.07;2.85;;;;;;;13.52;100.00;101420.88;6281046;22;20016;-76
2023/08/08 01:01:38;;;;;;;5.35;2.70;;;;;;;13.53;100.00;101425.03;6252728;22;20350;-75
2023/08/08 01:04:06;;;;;;;8.73;3.47;;;;;;;13.53;100.00;101417.00;6281299;22;20477;-76
2023/08/08 01:06:36;;;;;;;8.52;2.83;;;;;;;13.54;100.00;101417.75;6279685;22;20016;-76
2023/08/08 01:09:31;;;;;;;9.48;2.60;;;;;;;13.55;100.00;101411.94;6281018;22;20066;-76
2023/08/08 01:12:00;;;;;;;7.22;2.63;;;;;;;13.55;100.00;101417.31;6156316;23;20097;-76
2023/08/08 01:14:30;;;;;;;11.65;3.20;;;;;;;13.57;100.00;101420.28;6156220;23;20026;-76
2023/08/08 01:16:57;;;;;;;8.15;2.95;;;;;;;13.58;100.00;101421.03;6131529;23;20018;-76
2023/08/08 01:19:28;;;;;;;9.43;2.67;;;;;;;13.58;100.00;101421.78;6155622;23;20018;-76
2023/08/08 01:21:58;;;;;;;8.52;2.67;;;;;;;13.60;100.00;101423.97;6156940;23;20041;-76
2023/08/08 01:24:28;;;;;;;5.13;2.60;;;;;;;13.61;100.00;101420.13;6131393;23;20029;-76
2023/08/08 01:26:56;;;;;;;13.95;3.13;;;;;;;13.60;100.00;101414.03;6131778;23;20026;-76
2023/08/08 01:29:23;;;;;;;5.60;2.38;;;;;;;13.59;100.00;101412.56;6131168;23;20022;-76
2023/08/08 01:31:50;;;;;;;6.97;2.75;;;;;;;13.60;100.00;101416.69;6156925;23;20106;-76
2023/08/08 01:34:16;;;;;;;8.10;2.70;;;;;;;13.59;100.00;101415.22;6156214;23;20028;-75
2023/08/08 01:36:55;;;;;;;6.65;2.55;;;;;;;13.60;100.00;101413.28;6156478;23;20472;-76
2023/08/08 01:39:26;;;;;;;8.45;2.85;;;;;;;13.58;100.00;101413.75;6131037;23;20397;-76
2023/08/08 01:41:54;;;;;;;9.90;2.90;;;;;;;13.56;100.00;101410.78;6156677;23;20018;-76
2023/08/08 01:44:23;;;;;;;7.72;2.80;;;;;;;13.55;100.00;101411.94;6156481;23;20022;-76
2023/08/08 01:46:53;;;;;;;9.13;2.95;;;;;;;13.54;100.00;101410.47;6106962;23;20021;-76
2023/08/08 01:49:20;;;;;;;6.03;2.63;;;;;;;13.53;100.00;101400.94;6230527;22;20414;-76
2023/08/08 01:51:48;;;;;;;10.45;3.60;;;;;;;13.53;100.00;101400.94;6253126;22;20052;-76
2023/08/08 01:54:15;;;;;;;8.77;2.88;;;;;;;13.53;100.00;101400.94;6281006;22;20024;-76
2023/08/08 01:56:41;;;;;;;6.45;2.90;;;;;;;13.54;100.00;101397.09;6253075;22;20016;-76
2023/08/08 01:59:08;;;;;;;7.80;2.88;;;;;;;13.55;100.00;101382.53;6253642;22;20016;-76
2023/08/08 02:01:35;;;;;;;8.55;2.92;;;;;;;13.56;100.00;101392.03;6252247;22;20023;-76
2023/08/08 02:04:02;;;;;;;7.65;2.97;;;;;;;13.57;100.00;101392.78;6280046;22;20577;-76
2023/08/08 02:06:29;;;;;;;9.45;3.00;;;;;;;13.57;100.00;101392.78;6252880;22;20070;-76
2023/08/08 02:08:57;;;;;;;9.23;3.20;;;;;;;13.55;100.00;101390.56;6253375;22;20040;-76
2023/08/08 02:11:24;;;;;;;12.23;3.17;;;;;;;13.56;100.00;101389.38;6279961;22;20449;-76
2023/08/08 02:13:50;;;;;;;10.18;3.15;;;;;;;13.57;100.00;101385.50;6253209;22;20027;-76
2023/08/08 02:16:17;;;;;;;9.15;3.17;;;;;;;13.57;100.00;101385.50;6280253;22;20083;-76
2023/08/08 02:18:44;;;;;;;6.43;2.90;;;;;;;13.58;100.00;101391.59;6280523;22;20074;-76
2023/08/08 02:21:11;;;;;;;7.88;3.20;;;;;;;13.57;100.00;101379.41;6280865;22;20012;-76
2023/08/08 02:23:37;;;;;;;11.00;3.25;;;;;;;13.56;100.00;101376.00;6279898;22;20026;-75
2023/08/08 02:26:05;;;;;;;10.02;3.30;;;;;;;13.57;100.00;101374.81;6280508;22;20086;-75
2023/08/08 02:28:31;;;;;;;7.45;3.05;;;;;;;13.56;100.00;101384.00;6252520;22;20028;-76
2023/08/08 02:30:59;;;;;;;5.50;3.17;;;;;;;13.56;100.00;101378.66;6280739;22;20442;-76
2023/08/08 02:33:26;;;;;;;11.15;3.42;;;;;;;13.55;100.00;101379.09;6251545;22;20020;-76
2023/08/08 02:35:52;;;;;;;7.88;3.35;;;;;;;13.54;100.00;101374.94;6280516;22;20019;-75
2023/08/08 02:38:19;;;;;;;9.13;3.30;;;;;;;13.53;100.00;101368.84;6279836;22;20395;-76
2023/08/08 02:40:46;;;;;;;8.35;3.45;;;;;;;13.53;100.00;101379.56;6280646;22;20112;-76
2023/08/08 02:43:12;;;;;;;8.32;3.13;;;;;;;13.53;100.00;101371.53;6280521;22;20024;-76
2023/08/08 02:45:39;;;;;;;8.23;3.20;;;;;;;13.54;100.00;101374.94;6279928;22;20012;-76
2023/08/08 02:48:06;;;;;;;8.75;3.70;;;;;;;13.51;100.00;101371.22;6252170;22;20055;-76
2023/08/08 02:50:32;;;;;;;8.38;3.08;;;;;;;13.50;100.00;101369.75;6252264;22;20365;-76
2023/08/08 02:53:00;;;;;;;12.23;3.22;;;;;;;13.47;100.00;101370.63;6252720;22;20024;-76
2023/08/08 02:55:32;;;;;;;5.63;3.15;;;;;;;13.44;100.00;101374.19;6252289;22;20424;-76
2023/08/08 02:57:59;;;;;;;4.43;3.05;;;;;;;13.44;100.00;101376.84;6253422;22;20016;-75
2023/08/08 03:00:25;;;;;;;11.57;3.03;;;;;;;13.44;100.00;101368.09;6253915;22;20174;-76
2023/08/08 03:02:53;;;;;;;11.20;3.38;;;;;;;13.44;100.00;101366.16;6228688;22;20032;-76
2023/08/08 03:05:20;;;;;;;10.18;3.40;;;;;;;13.44;100.00;101363.50;6280870;22;20012;-76
2023/08/08 03:07:47;;;;;;;8.80;3.25;;;;;;;13.44;100.00;101360.81;6253993;22;20074;-76
2023/08/08 03:10:14;;;;;;;7.43;3.08;;;;;;;13.43;100.00;101364.66;6254195;22;20062;-76
2023/08/08 03:12:42;;;;;;;8.50;3.10;;;;;;;13.41;100.00;101364.38;6254509;22;20079;-76
2023/08/08 03:15:10;;;;;;;8.90;3.30;;;;;;;13.41;100.00;101358.28;6254587;22;20533;-76
2023/08/08 03:17:38;;;;;;;10.50;4.00;;;;;;;13.39;100.00;101358.72;6252557;22;20538;-76
2023/08/08 03:20:06;;;;;;;16.50;3.90;;;;;;;13.40;100.00;101356.78;6254061;22;20023;-76
2023/08/08 03:22:33;;;;;;;12.82;4.40;;;;;;;13.40;100.00;101362.13;6280903;22;20493;-76
2023/08/08 03:25:00;;;;;;;7.13;3.72;;;;;;;13.40;100.00;101362.88;6281489;22;20062;-76
2023/08/08 03:27:27;;;;;;;10.52;4.18;;;;;;;13.40;100.00;101367.50;6252916;22;20024;-76
2023/08/08 03:29:54;;;;;;;5.32;3.33;;;;;;;13.39;100.00;101364.06;6280911;22;20016;-75
2023/08/08 03:32:22;;;;;;;6.47;3.72;;;;;;;13.40;100.00;101359.47;6253129;22;20016;-75
2023/08/08 03:34:50;;;;;;;9.20;3.65;;;;;;;13.38;100.00;101357.22;6281595;22;20457;-75
2023/08/08 03:37:16;;;;;;;8.50;3.45;;;;;;;13.38;100.00;101353.81;6281480;22;20036;-75
2023/08/08 03:39:43;;;;;;;8.95;3.67;;;;;;;13.38;100.00;101351.88;6281104;22;20016;-75
2023/08/08 03:42:10;;;;;;;8.27;3.70;;;;;;;13.38;100.00;101356.50;6254143;22;20048;-75
2023/08/08 03:44:36;;;;;;;9.05;3.45;;;;;;;13.38;100.00;101351.13;6280031;22;20016;-75
2023/08/08 03:47:03;;;;;;;7.32;3.70;;;;;;;13.36;100.00;101340.88;6229120;22;20070;-76
2023/08/08 03:49:45;;;;;;;6.43;3.70;;;;;;;13.36;100.00;101346.25;6254185;22;20361;-75
2023/08/08 03:52:12;;;;;;;12.98;4.13;;;;;;;13.34;100.00;101341.34;6253568;22;20453;-76
2023/08/08 03:54:39;;;;;;;6.72;3.53;;;;;;;13.32;100.00;101345.63;6280692;22;20456;-75
2023/08/08 03:57:06;;;;;;;4.60;3.55;;;;;;;13.31;100.00;101346.81;6281374;22;20499;-75
2023/08/08 03:59:33;;;;;;;8.88;3.97;;;;;;;13.31;100.00;101349.50;6252687;22;20094;-76
2023/08/08 04:02:00;;;;;;;11.65;4.07;;;;;;;13.30;100.00;101345.31;6253586;22;20028;-76
2023/08/08 04:04:27;;;;;;;5.32;4.00;;;;;;;13.30;100.00;101342.66;6253291;22;20170;-76
2023/08/08 04:06:54;;;;;;;11.13;4.07;;;;;;;13.29;100.00;101338.50;6253923;22;20016;-76
2023/08/08 04:09:20;;;;;;;6.20;4.05;;;;;;;13.28;100.00;101345.03;6280357;22;20021;-75
2023/08/08 04:11:48;;;;;;;5.32;3.78;;;;;;;13.27;100.00;101335.53;6281309;22;20086;-76
2023/08/08 04:14:16;;;;;;;6.70;4.10;;;;;;;13.25;100.00;101335.22;6253430;22;20533;-76
2023/08/08 04:16:43;;;;;;;13.43;4.43;;;;;;;13.22;100.00;101330.75;6253933;22;20044;-76
2023/08/08 04:19:09;;;;;;;10.55;3.80;;;;;;;13.21;100.00;101324.66;6281160;22;20434;-76
2023/08/08 04:21:36;;;;;;;9.55;3.78;;;;;;;13.18;100.00;101319.47;6252800;22;20032;-75
2023/08/08 04:24:02;;;;;;;6.75;3.90;;;;;;;13.17;100.00;101323.34;6281262;22;20151;-76
2023/08/08 04:26:29;;;;;;;6.32;3.50;;;;;;;13.12;100.00;101327.31;6280196;22;20016;-76
2023/08/08 04:28:56;;;;;;;9.60;3.58;;;;;;;13.10;100.00;101327.00;6280614;22;20090;-76
2023/08/08 04:31:25;;;;;;;6.88;3.45;;;;;;;13.09;100.00;101330.88;6280611;22;20044;-76
2023/08/08 04:33:58;;;;;;;7.72;4.22;;;;;;;13.09;100.00;101338.88;6281279;22;20095;-76
2023/08/08 04:36:27;;;;;;;8.10;3.47;;;;;;;13.11;100.00;101330.44;6280723;22;20043;-75
2023/08/08 04:38:53;;;;;;;6.03;3.75;;;;;;;13.12;100.00;101334.59;6281077;22;20095;-76
2023/08/08 04:41:20;;;;;;;4.45;3.72;;;;;;;13.12;100.00;101338.00;6280125;22;20055;-76
2023/08/08 04:43:47;;;;;;;4.43;3.70;;;;;;;13.15;100.00;101342.47;6280639;22;20019;-76
2023/08/08 04:46:13;;;;;;;7.25;3.60;;;;;;;13.17;100.00;101334.03;6281096;22;20012;-75
2023/08/08 04:48:40;;;;;;;6.82;3.50;;;;;;;13.19;100.00;101337.75;6280025;22;20016;-75
2023/08/08 04:51:08;;;;;;;9.93;3.53;;;;;;;13.21;100.00;101329.25;6280880;22;20020;-75
2023/08/08 04:53:34;;;;;;;8.50;3.90;;;;;;;13.23;100.00;101324.22;6279826;22;20012;-75
2023/08/08 04:56:01;;;;;;;9.52;3.95;;;;;;;13.23;100.00;101326.91;6280805;22;20013;-76
2023/08/08 04:58:27;;;;;;;5.57;3.60;;;;;;;13.23;100.00;101318.88;6279402;22;20058;-76
2023/08/08 05:00:54;;;;;;;15.50;3.67;;;;;;;13.25;100.00;101324.53;6253723;22;20024;-76
2023/08/08 05:03:21;;;;;;;5.05;3.50;;;;;;;13.25;100.00;101319.19;6280292;22;20015;-75
2023/08/08 05:05:48;;;;;;;9.95;3.25;;;;;;;13.29;100.00;101323.19;6253838;22;20431;-75
2023/08/08 05:08:15;;;;;;;8.93;3.20;;;;;;;13.44;100.00;101320.69;6280931;22;20524;-76
2023/08/08 05:10:41;;;;;;;7.13;3.30;;;;;;;14.13;100.00;101324.66;6279951;22;20095;-75
2023/08/08 05:13:09;;;;;;;5.40;3.10;;;;;;;14.97;100.00;101330.03;6280480;22;20012;-76
2023/08/08 05:15:35;;;;;;;6.78;3.35;;;;;;;14.80;100.00;101323.56;6227427;22;20012;-76
2023/08/08 05:18:02;;;;;;;4.80;3.00;;;;;;;14.70;100.00;101327.50;6281240;22;20017;-75
2023/08/08 05:20:29;;;;;;;6.28;3.40;;;;;;;15.18;100.00;101329.03;6280167;22;20380;-76
2023/08/08 05:22:55;;;;;;;5.72;3.30;;;;;;;15.65;100.00;101332.88;6280561;22;20016;-76
2023/08/08 05:25:22;;;;;;;10.55;3.40;;;;;;;15.18;99.82;101331.72;6280158;22;20025;-75
2023/08/08 05:27:49;;;;;;;6.97;3.20;;;;;;;14.74;100.00;101338.78;6280541;22;20095;-75
2023/08/08 05:30:16;;;;;;;8.82;3.05;;;;;;;14.56;100.00;101340.34;6281025;22;20026;-75
2023/08/08 05:32:43;;;;;;;6.38;3.60;;;;;;;15.67;100.00;101344.63;6280466;22;20496;-76
2023/08/08 05:35:10;;;;;;;7.32;2.92;;;;;;;17.62;91.64;101343.34;6280962;22;20023;-76
2023/08/08 05:37:36;;;;;;;4.78;2.85;;;;;;;17.72;86.25;101338.56;6280253;22;20020;-76
2023/08/08 05:40:05;;;;;;;11.55;3.20;;;;;;;18.64;82.16;101341.09;6281193;22;20495;-76
2023/08/08 05:42:32;;;;;;;9.00;2.83;;;;;;;19.23;78.61;101351.19;6279428;22;20504;-75
2023/08/08 05:44:59;;;;;;;7.97;2.70;;;;;;;20.23;73.34;101348.72;6280928;22;20016;-75
2023/08/08 05:47:26;;;;;;;5.68;3.00;;;;;;;19.82;72.43;101347.72;6279877;22;20437;-75
2023/08/08 05:49:53;;;;;;;7.43;2.85;;;;;;;19.83;72.25;101349.19;6280569;22;20020;-75
2023/08/08 05:52:21;;;;;;;4.65;2.58;;;;;;;20.17;71.09;101356.09;6279992;22;20016;-75
2023/08/08 05:54:47;;;;;;;9.27;2.72;;;;;;;20.08;69.79;101352.88;6280892;22;20071;-75
2023/08/08 05:57:14;;;;;;;4.03;2.08;;;;;;;20.80;67.49;101347.41;6280139;22;20525;-75
2023/08/08 05:59:40;;;;;;;4.90;2.35;;;;;;;21.41;64.90;101353.88;6280094;22;20020;-75
2023/08/08 06:02:07;;;;;;;5.95;2.42;;;;;;;21.89;63.65;101358.78;6280977;22;20012;-76
2023/08/08 06:04:34;;;;;;;6.32;2.38;;;;;;;22.20;62.48;101352.16;6278725;22;20023;-76
2023/08/08 06:07:00;;;;;;;5.97;1.88;;;;;;;22.05;61.21;101354.47;6280673;22;20074;-74
2023/08/08 06:09:28;;;;;;;3.47;2.10;;;;;;;21.80;62.42;101348.22;6279386;22;20030;-75
2023/08/08 06:11:54;;;;;;;3.05;1.90;;;;;;;21.52;62.77;101353.81;6280458;22;20018;-75
2023/08/08 06:14:21;;;;;;;4.28;2.00;;;;;;;21.15;63.62;101362.34;6279803;22;20454;-75
2023/08/08 06:16:47;;;;;;;4.93;2.00;;;;;;;20.88;64.68;101361.91;6280641;22;20087;-75
2023/08/08 06:19:15;;;;;;;5.53;2.08;;;;;;;20.54;65.62;101357.81;6280427;22;20020;-75
2023/08/08 06:21:42;;;;;;;9.13;1.70;;;;;;;20.19;66.37;101363.72;6279733;22;20413;-77
2023/08/08 06:24:09;;;;;;;4.88;1.73;;;;;;;20.00;67.61;101366.13;6252635;22;20012;-78
2023/08/08 06:26:35;;;;;;;4.97;1.80;;;;;;;19.75;68.87;101367.81;6279856;22;20012;-79
2023/08/08 06:29:02;;;;;;;7.38;1.65;;;;;;;19.30;69.87;101370.34;6280371;22;20020;-77
2023/08/08 06:31:30;;;;;;;1.67;1.35;;;;;;;19.15;70.79;101361.00;6279349;22;20081;-79
2023/08/08 06:33:56;;;;;;;1.95;1.50;;;;;;;18.92;70.90;101370.91;6279865;22;20024;-78
2023/08/08 06:36:23;;;;;;;2.75;1.50;;;;;;;18.71;71.99;101367.63;6278979;22;20074;-78
2023/08/08 06:38:49;;;;;;;3.40;1.35;;;;;;;18.65;72.36;101367.56;6279818;22;20020;-79
2023/08/08 06:41:16;;;;;;;1.98;1.50;;;;;;;18.65;72.83;101364.13;6253261;22;20016;-78
2023/08/08 06:43:43;;;;;;;3.63;1.60;;;;;;;18.74;73.59;101368.63;6280223;22;20012;-78
2023/08/08 06:46:09;;;;;;;3.10;1.30;;;;;;;18.68;73.59;101365.13;6280550;22;20083;-78
2023/08/08 06:48:36;;;;;;;6.03;1.55;;;;;;;18.45;72.63;101373.03;6252202;22;20024;-79
2023/08/08 06:51:02;;;;;;;6.60;1.45;;;;;;;18.26;73.18;101375.34;6253653;22;20019;-78
2023/08/08 06:53:29;;;;;;;2.75;1.10;;;;;;;18.26;71.39;101375.34;6278769;22;20055;-77
2023/08/08 06:55:55;;;;;;;3.03;1.20;;;;;;;18.05;72.88;101368.53;6280536;22;20016;-76
2023/08/08 06:58:23;;;;;;;3.20;1.30;;;;;;;18.02;73.32;101374.13;6279778;22;20016;-76
2023/08/08 07:00:50;;;;;;;1.63;1.20;;;;;;;18.04;71.22;101379.78;6280355;22;20012;-77
2023/08/08 07:03:17;;;;;;;3.80;1.17;;;;;;;18.10;72.23;101377.88;6280215;22;20036;-77
2023/08/08 07:05:44;;;;;;;5.85;1.40;;;;;;;18.07;72.09;101379.56;6253131;22;20039;-77
2023/08/08 07:08:11;;;;;;;4.00;1.27;;;;;;;18.10;72.14;101369.78;6252619;22;20553;-77
2023/08/08 07:10:38;;;;;;;2.30;1.27;;;;;;;18.09;72.20;101371.00;6279317;22;20520;-77
2023/08/08 07:13:05;;;;;;;5.25;1.15;;;;;;;18.16;72.17;101371.31;6279910;22;20023;-77
2023/08/08 07:15:31;;;;;;;2.85;0.90;;;;;;;18.19;70.72;101367.69;6279494;22;20050;-75
2023/08/08 07:17:58;;;;;;;2.05;1.00;;;;;;;18.10;70.51;101367.09;6280069;22;20024;-78
2023/08/08 07:20:25;;;;;;;4.50;1.30;;;;;;;18.08;70.71;101364.88;6278733;22;20070;-76
2023/08/08 07:22:51;;;;;;;5.40;1.45;;;;;;;18.15;70.49;101375.22;6279290;22;20023;-78
2023/08/08 07:25:18;;;;;;;3.42;0.90;;;;;;;18.08;69.67;101369.53;6279963;22;20051;-82
2023/08/08 07:27:44;;;;;;;2.80;0.93;;;;;;;18.02;68.16;101360.66;6227638;22;20020;-83
2023/08/08 07:30:12;;;;;;;3.95;0.90;;;;;;;18.15;70.73;101361.75;6252498;22;20020;-81
2023/08/08 07:32:38;;;;;;;4.05;1.42;;;;;;;18.28;71.24;101366.78;6251728;22;20024;-78
2023/08/08 07:35:05;;;;;;;4.97;1.52;;;;;;;18.27;68.17;101363.34;6280003;22;20456;-81
2023/08/08 07:37:33;;;;;;;2.67;0.95;;;;;;;18.18;67.57;101352.72;6278281;22;20027;-79
2023/08/08 07:40:00;;;;;;;5.53;0.80;;;;;;;18.21;68.40;101354.47;6279491;22;20016;-75
2023/08/08 07:42:26;;;;;;;2.97;0.98;;;;;;;18.35;67.36;101354.81;6279023;22;20016;-75
2023/08/08 07:44:53;;;;;;;4.40;1.00;;;;;;;18.42;68.36;101354.38;6280114;22;20096;-75
2023/08/08 07:47:20;;;;;;;3.88;0.93;;;;;;;18.43;65.91;101353.16;6280456;22;20017;-75
2023/08/08 07:49:46;;;;;;;2.47;0.90;;;;;;;18.54;67.25;101337.81;6253704;22;20020;-77
2023/08/08 07:52:13;;;;;;;3.20;0.85;;;;;;;18.58;65.35;101345.66;6279855;22;20421;-75
2023/08/08 07:54:40;;;;;;;1.27;0.80;;;;;;;18.47;66.28;101338.25;6280845;22;20067;-76
2023/08/08 07:57:06;;;;;;;4.65;1.13;;;;;;;18.59;65.74;101341.75;6281690;22;20023;-77
2023/08/08 07:59:33;;;;;;;3.67;0.90;;;;;;;18.86;66.00;101345.84;6280698;22;20099;-78
2023/08/08 08:02:00;;;;;;;4.22;0.88;;;;;;;18.81;65.80;101349.25;6281135;22;20019;-81
2023/08/08 08:04:26;;;;;;;5.35;1.02;;;;;;;18.68;65.33;101349.69;6280238;22;20012;-86
2023/08/08 08:06:54;;;;;;;4.68;1.00;;;;;;;18.75;64.42;101348.50;6253432;22;20027;-81
2023/08/08 08:09:20;;;;;;;2.75;0.77;;;;;;;18.58;65.14;101351.06;6227850;22;20106;-83
2023/08/08 08:11:47;;;;;;;2.22;0.80;;;;;;;18.52;62.75;101347.59;6281845;22;20040;-82
2023/08/08 08:14:13;;;;;;;5.13;1.00;;;;;;;18.66;62.63;101344.03;6281093;22;20008;-79
2023/08/08 08:16:40;;;;;;;2.38;0.60;;;;;;;18.78;62.80;101342.16;6280217;22;20047;-83
2023/08/08 08:19:06;;;;;;;3.80;1.15;;;;;;;18.96;63.48;101345.19;6281172;22;20012;-80
2023/08/08 08:21:34;;;;;;;0.82;0.60;;;;;;;18.91;61.90;101334.38;6280431;22;20083;-81
2023/08/08 08:24:01;;;;;;;0.70;0.65;;;;;;;18.89;63.01;101350.28;6280758;22;20406;-81
2023/08/08 08:26:28;;;;;;;0.90;0.70;;;;;;;18.78;60.91;101332.09;6280495;22;20027;-87
2023/08/08 08:28:55;;;;;;;2.70;0.60;;;;;;;18.97;59.83;101338.56;6280931;22;20020;-76
2023/08/08 08:31:21;;;;;;;4.40;0.82;;;;;;;18.87;59.96;101341.94;6280508;22;20350;-79
2023/08/08 08:33:48;;;;;;;3.22;0.70;;;;;;;18.83;62.09;101334.06;6281106;22;20012;-78
2023/08/08 08:36:14;;;;;;;2.47;0.75;;;;;;;19.07;61.75;101347.22;6253217;22;20027;-78
2023/08/08 08:38:41;;;;;;;2.25;0.90;;;;;;;19.45;59.08;101337.78;6280142;22;20019;-77
2023/08/08 08:41:12;;;;;;;1.23;0.70;;;;;;;19.65;59.35;101340.31;6281162;22;20013;-78
2023/08/08 08:43:39;;;;;;;2.28;0.70;;;;;;;19.54;57.56;101332.19;6280455;22;20042;-79
2023/08/08 08:46:08;;;;;;;0.95;0.60;;;;;;;19.25;58.61;101343.34;6254166;22;20027;-87
2023/08/08 08:48:35;;;;;;;2.55;0.70;;;;;;;19.38;59.53;101349.03;6280073;22;20393;-78
2023/08/08 08:51:02;;;;;;;1.02;0.57;;;;;;;19.33;58.53;101347.78;6280360;22;20087;-78
2023/08/08 08:53:29;;;;;;;1.52;0.70;;;;;;;19.39;58.63;101347.09;6280484;22;20008;-77
2023/08/08 08:56:00;;;;;;;3.17;0.60;;;;;;;19.32;58.41;101351.72;6280651;22;20016;-77
2023/08/08 08:58:28;;;;;;;0.82;0.60;;;;;;;19.22;58.06;101352.41;6280146;22;20024;-77
2023/08/08 09:00:56;;;;;;;1.13;0.73;;;;;;;19.14;57.88;101352.16;6281133;22;20043;-76
2023/08/08 09:03:24;;;;;;;1.20;0.82;;;;;;;19.12;59.00;101351.91;6226724;22;20034;-77
2023/08/08 09:05:54;;;;;;;1.85;0.70;;;;;;;19.30;58.77;101356.13;6281010;22;20086;-76
2023/08/08 09:08:20;;;;;;;1.02;0.70;;;;;;;19.24;59.08;101358.06;6279969;22;20392;-76
2023/08/08 09:10:47;;;;;;;2.30;0.80;;;;;;;19.05;57.80;101355.03;6281454;22;20012;-77
2023/08/08 09:13:14;;;;;;;1.20;0.52;;;;;;;19.12;58.36;101357.28;6281176;22;20432;-77
2023/08/08 09:15:40;;;;;;;1.08;0.70;;;;;;;19.05;57.65;101351.59;6280988;22;20020;-76
2023/08/08 09:18:07;;;;;;;1.92;0.70;;;;;;;18.87;57.17;101350.78;6280592;22;20016;-77
2023/08/08 09:20:34;;;;;;;1.08;0.50;;;;;;;18.77;59.22;101365.69;6280283;22;20354;-77
2023/08/08 09:23:01;;;;;;;2.83;0.80;;;;;;;18.91;59.41;101345.91;6228200;22;20485;-76
2023/08/08 09:25:27;;;;;;;0.90;0.90;;;;;;;19.17;58.04;101350.44;6280211;22;20020;-76
2023/08/08 09:27:54;;;;;;;0.77;0.50;;;;;;;19.19;56.64;101362.22;6281086;22;20012;-76
2023/08/08 09:30:21;;;;;;;0.85;0.70;;;;;;;19.28;56.75;101355.88;6252505;22;20024;-77
2023/08/08 09:32:48;;;;;;;0.70;0.70;;;;;;;19.42;57.26;101354.22;6280186;22;20039;-76
2023/08/08 09:35:15;;;;;;;0.55;0.55;;;;;;;19.53;56.41;101349.63;6253851;22;20016;-77
2023/08/08 09:37:42;;;;;;;0.68;0.60;;;;;;;19.41;58.11;101352.72;6280205;22;20009;-76
2023/08/08 09:40:11;;;;;;;1.70;0.68;;;;;;;19.50;57.72;101355.97;6280750;22;20012;-77
2023/08/08 09:42:40;;;;;;;0.88;0.70;;;;;;;19.79;57.24;101356.78;6252261;22;20016;-77
2023/08/08 09:45:09;;;;;;;1.65;0.80;;;;;;;20.24;55.56;101352.16;6280760;22;20020;-77
2023/08/08 09:47:36;;;;;;;0.60;0.60;;;;;;;20.19;53.67;101353.63;6252130;22;20110;-76
2023/08/08 09:50:07;;;;;;;1.38;0.70;;;;;;;19.75;52.40;101348.91;6280842;22;20181;-77
2023/08/08 09:52:35;;;;;;;0.73;0.70;;;;;;;19.52;55.48;101355.50;6279831;22;20323;-78
2023/08/08 09:55:02;;;;;;;1.88;0.68;;;;;;;19.53;55.68;101360.41;6253610;22;20366;-79
2023/08/08 09:57:30;;;;;;;0.75;0.75;;;;;;;19.75;54.71;101375.94;6280021;22;20079;-78
2023/08/08 09:59:58;;;;;;;1.05;0.75;;;;;;;19.35;55.39;101363.50;6253363;22;20024;-78
2023/08/08 10:02:25;;;;;;;1.05;0.70;;;;;;;19.36;57.21;101369.66;6279588;22;20406;-77
2023/08/08 10:04:52;;;;;;;4.50;0.98;;;;;;;19.73;56.71;101367.56;6280750;22;20055;-77
2023/08/08 10:07:19;;;;;;;0.80;0.80;;;;;;;19.79;55.35;101370.28;6252469;22;20051;-77
2023/08/08 10:09:46;;;;;;;0.75;0.75;;;;;;;20.11;56.38;101373.53;6280666;22;20024;-77
2023/08/08 10:12:12;;;;;;;1.67;0.82;;;;;;;19.90;54.86;101362.22;6253316;22;20012;-78
2023/08/08 10:14:42;;;;;;;1.38;0.85;;;;;;;19.93;54.80;101369.34;6252455;22;20446;-78
2023/08/08 10:17:13;;;;;;;1.38;0.65;;;;;;;20.19;55.24;101363.72;6279923;22;20441;-76
2023/08/08 10:19:40;;;;;;;6.93;0.80;;;;;;;20.50;56.59;101374.28;6279803;22;20071;-76
2023/08/08 10:22:07;;;;;;;1.05;0.80;;;;;;;20.26;53.41;101363.97;6280601;22;20043;-76
2023/08/08 10:24:35;;;;;;;1.25;0.98;;;;;;;20.14;55.87;101367.88;6280055;22;20402;-78
2023/08/08 10:27:04;;;;;;;1.52;0.90;;;;;;;20.13;54.32;101376.47;6280524;22;20055;-79
2023/08/08 10:29:33;;;;;;;1.67;1.00;;;;;;;19.97;54.32;101378.69;6279593;22;20550;-78
2023/08/08 10:32:04;;;;;;;3.10;1.10;;;;;;;19.97;55.21;101375.25;6279623;22;20429;-78
2023/08/08 10:34:42;;;;;;;2.50;0.80;;;;;;;20.02;56.53;101390.72;6279168;22;20051;-79
2023/08/08 10:37:18;;;;;;;0.90;0.88;;;;;;;19.98;55.85;101374.03;6280635;22;20016;-79
2023/08/08 10:39:55;;;;;;;0.93;0.80;;;;;;;19.91;55.18;101369.84;6280377;22;20012;-79
2023/08/08 10:42:23;;;;;;;1.52;0.77;;;;;;;19.85;55.95;101381.84;6252394;22;20023;-79
2023/08/08 10:45:01;;;;;;;0.77;0.77;;;;;;;19.80;56.66;101387.97;6279991;22;20074;-79
2023/08/08 10:47:34;;;;;;;1.00;0.70;;;;;;;19.71;55.62;101382.78;6279948;22;20016;-79
2023/08/08 10:50:11;;;;;;;2.08;0.80;;;;;;;19.53;56.28;101384.72;6280243;22;20023;-77
2023/08/08 10:52:59;;;;;;;0.65;0.65;;;;;;;19.99;55.24;101372.78;6278984;22;20016;-76
2023/08/08 10:55:34;;;;;;;0.90;0.70;;;;;;;19.99;55.88;101375.50;6279212;22;20515;-78
2023/08/08 10:58:08;;;;;;;1.55;0.88;;;;;;;20.10;54.48;101372.78;6278053;22;20012;-78
2023/08/08 11:00:36;;;;;;;0.90;0.90;;;;;;;20.22;53.94;101374.28;6251405;22;20460;-77
2023/08/08 11:03:06;;;;;;;3.90;0.80;;;;;;;20.29;53.17;101379.19;6280424;22;20012;-78
2023/08/08 11:05:35;;;;;;;0.75;0.70;;;;;;;20.30;52.27;101380.66;6278922;22;20472;-77
2023/08/08 11:08:04;;;;;;;2.78;0.80;;;;;;;20.14;53.67;101378.69;6280009;22;20091;-77
2023/08/08 11:10:40;;;;;;;1.60;0.85;;;;;;;20.06;53.70;101366.16;6279401;22;20099;-78
2023/08/08 11:13:08;;;;;;;4.63;0.90;;;;;;;20.00;53.15;101374.25;6252727;22;20406;-77
2023/08/08 11:15:36;;;;;;;0.57;0.57;;;;;;;20.00;54.05;101368.84;6278782;22;20016;-77
2023/08/08 11:18:03;;;;;;;0.93;0.80;;;;;;;20.04;52.78;101380.16;6279818;22;20075;-78
2023/08/08 11:20:35;;;;;;;0.70;0.70;;;;;;;20.20;53.79;101386.81;6279750;22;20016;-79
2023/08/08 11:23:04;;;;;;;1.48;0.70;;;;;;;20.56;53.30;101385.09;6281052;22;20071;-77